ZA-0054 weather

Askham Airport
Askham, Northern Cape, South Africa

Public forecast

Using degrees Celsius for public forecast. Weather courtesy of forecast.io.

METAR (pilot weather report)

Report is more than 6 hours old.

Closest report is Aroab B Airport, 62.6 nm (115.9 km) WNW. Retrieved 2018/09/16 12:00 UTC (11 months ago):

FYAB 161200Z AUTO 00000KT //// // ////// 30/M15 Q1005

TAF (pilot weather forecast)

Forecast is more than 12 hours old.

Closest forecast is Pierre Van Ryneveld Airport, 88.6 nm (164.1 km) SSE. Retrieved 2019/08/23 00:00 UTC (1 day ago):

TAF FAUP 232200Z 2400/2424 VRB03KT CAVOK TX31/2412Z TN11/2405Z